sensor_id;sensor_type;location;lat;lon;timestamp;temperature;humidity
13049;DHT22;6591;51.446;5.404;2023-03-25T00:01:32;11.60;99.90
13049;DHT22;6591;51.446;5.404;2023-03-25T00:04:00;13.80;99.90
13049;DHT22;6591;51.446;5.404;2023-03-25T00:06:31;11.80;99.90
13049;DHT22;6591;51.446;5.404;2023-03-25T00:09:02;11.70;99.90
13049;DHT22;6591;51.446;5.404;2023-03-25T00:11:29;12.00;99.90
13049;DHT22;6591;51.446;5.404;2023-03-25T00:13:57;13.00;99.90
13049;DHT22;6591;51.446;5.404;2023-03-25T00:16:24;11.70;99.90
13049;DHT22;6591;51.446;5.404;2023-03-25T00:18:51;11.70;99.90
13049;DHT22;6591;51.446;5.404;2023-03-25T00:21:18;11.70;99.90
13049;DHT22;6591;51.446;5.404;2023-03-25T00:23:46;11.70;99.90
13049;DHT22;6591;51.446;5.404;2023-03-25T00:26:13;11.70;99.90
13049;DHT22;6591;51.446;5.404;2023-03-25T00:28:40;11.70;99.90
13049;DHT22;6591;51.446;5.404;2023-03-25T00:31:11;11.70;99.90
13049;DHT22;6591;51.446;5.404;2023-03-25T00:33:40;11.70;99.90
13049;DHT22;6591;51.446;5.404;2023-03-25T00:36:09;12.20;99.90
13049;DHT22;6591;51.446;5.404;2023-03-25T00:38:39;11.70;99.90
13049;DHT22;6591;51.446;5.404;2023-03-25T00:41:18;11.70;99.90
13049;DHT22;6591;51.446;5.404;2023-03-25T00:43:56;11.60;99.90
13049;DHT22;6591;51.446;5.404;2023-03-25T00:46:27;11.60;99.90
13049;DHT22;6591;51.446;5.404;2023-03-25T00:48:56;11.60;99.90
13049;DHT22;6591;51.446;5.404;2023-03-25T00:51:25;11.90;99.90
13049;DHT22;6591;51.446;5.404;2023-03-25T00:53:57;11.60;99.90
13049;DHT22;6591;51.446;5.404;2023-03-25T00:56:29;12.10;99.90
13049;DHT22;6591;51.446;5.404;2023-03-25T00:58:57;12.10;99.90
13049;DHT22;6591;51.446;5.404;2023-03-25T01:01:26;11.60;99.90
13049;DHT22;6591;51.446;5.404;2023-03-25T01:03:55;12.10;99.90
13049;DHT22;6591;51.446;5.404;2023-03-25T01:06:27;11.50;99.90
13049;DHT22;6591;51.446;5.404;2023-03-25T01:08:58;13.10;99.90
13049;DHT22;6591;51.446;5.404;2023-03-25T01:11:29;11.50;99.90
13049;DHT22;6591;51.446;5.404;2023-03-25T01:14:10;11.50;99.90
13049;DHT22;6591;51.446;5.404;2023-03-25T01:16:46;11.50;99.90
13049;DHT22;6591;51.446;5.404;2023-03-25T01:19:13;11.50;99.90
13049;DHT22;6591;51.446;5.404;2023-03-25T01:21:41;11.50;99.90
13049;DHT22;6591;51.446;5.404;2023-03-25T01:24:12;11.50;99.90
13049;DHT22;6591;51.446;5.404;2023-03-25T01:26:43;12.90;99.90
13049;DHT22;6591;51.446;5.404;2023-03-25T01:29:15;13.00;99.90
13049;DHT22;6591;51.446;5.404;2023-03-25T01:31:44;11.40;99.90
13049;DHT22;6591;51.446;5.404;2023-03-25T01:34:13;11.40;99.90
13049;DHT22;6591;51.446;5.404;2023-03-25T01:36:41;11.40;99.90
13049;DHT22;6591;51.446;5.404;2023-03-25T01:39:14;11.30;99.90
13049;DHT22;6591;51.446;5.404;2023-03-25T01:41:47;11.20;99.90
13049;DHT22;6591;51.446;5.404;2023-03-25T01:46:49;11.20;99.90
13049;DHT22;6591;51.446;5.404;2023-03-25T01:49:32;11.30;99.90
13049;DHT22;6591;51.446;5.404;2023-03-25T01:54:36;11.20;99.90
13049;DHT22;6591;51.446;5.404;2023-03-25T01:57:05;11.60;99.90
13049;DHT22;6591;51.446;5.404;2023-03-25T01:59:35;11.50;99.90
13049;DHT22;6591;51.446;5.404;2023-03-25T02:02:06;11.20;99.90
13049;DHT22;6591;51.446;5.404;2023-03-25T02:04:49;12.90;99.90
13049;DHT22;6591;51.446;5.404;2023-03-25T02:07:30;11.20;99.90
13049;DHT22;6591;51.446;5.404;2023-03-25T02:10:06;11.20;99.90
13049;DHT22;6591;51.446;5.404;2023-03-25T02:12:35;11.20;99.90
13049;DHT22;6591;51.446;5.404;2023-03-25T02:15:05;12.80;99.90
13049;DHT22;6591;51.446;5.404;2023-03-25T02:23:39;9.30;99.90
13049;DHT22;6591;51.446;5.404;2023-03-25T02:26:38;11.30;99.90
13049;DHT22;6591;51.446;5.404;2023-03-25T02:29:28;11.20;99.90
13049;DHT22;6591;51.446;5.404;2023-03-25T02:47:16;11.30;99.90
13049;DHT22;6591;51.446;5.404;2023-03-25T02:49:53;13.00;99.90
13049;DHT22;6591;51.446;5.404;2023-03-25T02:52:27;11.30;99.90
13049;DHT22;6591;51.446;5.404;2023-03-25T02:55:00;13.30;99.90
13049;DHT22;6591;51.446;5.404;2023-03-25T02:57:33;11.70;99.90
13049;DHT22;6591;51.446;5.404;2023-03-25T03:00:06;11.20;99.90
13049;DHT22;6591;51.446;5.404;2023-03-25T03:02:58;11.10;99.90
13049;DHT22;6591;51.446;5.404;2023-03-25T03:05:34;12.50;99.90
13049;DHT22;6591;51.446;5.404;2023-03-25T03:11:19;11.10;99.90
13049;DHT22;6591;51.446;5.404;2023-03-25T03:17:02;11.10;99.90
13049;DHT22;6591;51.446;5.404;2023-03-25T03:19:51;11.10;99.90
13049;DHT22;6591;51.446;5.404;2023-03-25T03:25:45;11.10;99.90
13049;DHT22;6591;51.446;5.404;2023-03-25T03:28:34;11.10;99.90
13049;DHT22;6591;51.446;5.404;2023-03-25T03:31:23;11.10;99.90
13049;DHT22;6591;51.446;5.404;2023-03-25T03:34:23;11.10;99.90
13049;DHT22;6591;51.446;5.404;2023-03-25T03:36:56;12.50;99.90
13049;DHT22;6591;51.446;5.404;2023-03-25T03:39:29;12.30;99.90
13049;DHT22;6591;51.446;5.404;2023-03-25T03:42:06;11.20;99.90
13049;DHT22;6591;51.446;5.404;2023-03-25T03:44:45;11.10;99.90
13049;DHT22;6591;51.446;5.404;2023-03-25T03:47:23;11.20;99.90
13049;DHT22;6591;51.446;5.404;2023-03-25T03:49:59;12.60;99.90
13049;DHT22;6591;51.446;5.404;2023-03-25T03:52:39;11.20;99.90
13049;DHT22;6591;51.446;5.404;2023-03-25T03:55:17;11.10;99.90
13049;DHT22;6591;51.446;5.404;2023-03-25T03:58:00;11.10;99.90
13049;DHT22;6591;51.446;5.404;2023-03-25T04:00:37;11.10;99.90
13049;DHT22;6591;51.446;5.404;2023-03-25T04:03:34;11.00;99.90
13049;DHT22;6591;51.446;5.404;2023-03-25T04:06:48;11.00;99.90
13049;DHT22;6591;51.446;5.404;2023-03-25T04:09:29;12.30;99.90
13049;DHT22;6591;51.446;5.404;2023-03-25T04:12:50;12.30;99.90
13049;DHT22;6591;51.446;5.404;2023-03-25T04:15:00;10.90;99.90
13049;DHT22;6591;51.446;5.404;2023-03-25T04:17:29;10.90;99.90
13049;DHT22;6591;51.446;5.404;2023-03-25T04:19:59;12.50;99.90
13049;DHT22;6591;51.446;5.404;2023-03-25T04:22:27;10.80;99.90
13049;DHT22;6591;51.446;5.404;2023-03-25T04:24:54;13.20;99.90
13049;DHT22;6591;51.446;5.404;2023-03-25T04:27:21;10.80;99.90
13049;DHT22;6591;51.446;5.404;2023-03-25T04:29:49;12.80;99.90
13049;DHT22;6591;51.446;5.404;2023-03-25T04:32:18;12.70;99.90
13049;DHT22;6591;51.446;5.404;2023-03-25T04:34:45;10.70;99.90
13049;DHT22;6591;51.446;5.404;2023-03-25T04:37:12;12.70;99.90
13049;DHT22;6591;51.446;5.404;2023-03-25T04:39:40;10.80;99.90
13049;DHT22;6591;51.446;5.404;2023-03-25T04:42:08;10.70;99.90
13049;DHT22;6591;51.446;5.404;2023-03-25T04:44:39;10.80;99.90
13049;DHT22;6591;51.446;5.404;2023-03-25T04:47:08;10.80;99.90
13049;DHT22;6591;51.446;5.404;2023-03-25T04:49:40;12.00;99.90
13049;DHT22;6591;51.446;5.404;2023-03-25T04:52:11;10.20;99.90
13049;DHT22;6591;51.446;5.404;2023-03-25T04:54:37;11.40;99.90
13049;DHT22;6591;51.446;5.404;2023-03-25T04:57:05;12.90;99.90
13049;DHT22;6591;51.446;5.404;2023-03-25T04:59:36;12.90;99.90
13049;DHT22;6591;51.446;5.404;2023-03-25T05:02:04;12.00;99.90
13049;DHT22;6591;51.446;5.404;2023-03-25T05:04:32;10.90;99.90
13049;DHT22;6591;51.446;5.404;2023-03-25T05:07:00;10.70;99.90
13049;DHT22;6591;51.446;5.404;2023-03-25T05:09:28;12.80;99.90
13049;DHT22;6591;51.446;5.404;2023-03-25T05:11:56;8.30;99.90
13049;DHT22;6591;51.446;5.404;2023-03-25T05:14:23;10.70;99.90
13049;DHT22;6591;51.446;5.404;2023-03-25T05:16:50;12.20;99.90
13049;DHT22;6591;51.446;5.404;2023-03-25T05:19:17;10.60;99.90
13049;DHT22;6591;51.446;5.404;2023-03-25T05:21:46;10.60;99.90
13049;DHT22;6591;51.446;5.404;2023-03-25T05:24:14;9.30;99.90
13049;DHT22;6591;51.446;5.404;2023-03-25T05:26:41;12.50;99.90
13049;DHT22;6591;51.446;5.404;2023-03-25T05:29:11;12.60;99.90
13049;DHT22;6591;51.446;5.404;2023-03-25T05:31:44;12.90;99.90
13049;DHT22;6591;51.446;5.404;2023-03-25T05:34:12;10.70;99.90
13049;DHT22;6591;51.446;5.404;2023-03-25T05:36:43;12.70;99.90
13049;DHT22;6591;51.446;5.404;2023-03-25T05:39:11;10.70;99.90
13049;DHT22;6591;51.446;5.404;2023-03-25T05:41:38;10.70;99.90
13049;DHT22;6591;51.446;5.404;2023-03-25T05:44:06;10.70;99.90
13049;DHT22;6591;51.446;5.404;2023-03-25T05:46:35;11.80;99.90
13049;DHT22;6591;51.446;5.404;2023-03-25T05:49:02;11.50;99.90
13049;DHT22;6591;51.446;5.404;2023-03-25T05:51:32;10.80;99.90
13049;DHT22;6591;51.446;5.404;2023-03-25T05:54:05;10.80;99.90
13049;DHT22;6591;51.446;5.404;2023-03-25T05:56:38;10.80;99.90
13049;DHT22;6591;51.446;5.404;2023-03-25T05:59:06;10.80;99.90
13049;DHT22;6591;51.446;5.404;2023-03-25T06:01:34;12.60;99.90
13049;DHT22;6591;51.446;5.404;2023-03-25T06:04:11;10.90;99.90
13049;DHT22;6591;51.446;5.404;2023-03-25T06:06:41;10.90;99.90
13049;DHT22;6591;51.446;5.404;2023-03-25T06:09:08;10.90;99.90
13049;DHT22;6591;51.446;5.404;2023-03-25T06:11:37;12.70;99.90
13049;DHT22;6591;51.446;5.404;2023-03-25T06:14:05;10.90;99.90
13049;DHT22;6591;51.446;5.404;2023-03-25T06:16:36;10.90;99.90
13049;DHT22;6591;51.446;5.404;2023-03-25T06:19:03;12.90;99.90
13049;DHT22;6591;51.446;5.404;2023-03-25T06:21:33;10.80;99.90
13049;DHT22;6591;51.446;5.404;2023-03-25T06:24:01;10.80;99.90
13049;DHT22;6591;51.446;5.404;2023-03-25T06:26:29;10.80;99.90
13049;DHT22;6591;51.446;5.404;2023-03-25T06:28:56;12.50;99.90
13049;DHT22;6591;51.446;5.404;2023-03-25T06:31:26;10.80;99.90
13049;DHT22;6591;51.446;5.404;2023-03-25T06:33:54;11.90;99.90
13049;DHT22;6591;51.446;5.404;2023-03-25T06:36:22;10.80;99.90
13049;DHT22;6591;51.446;5.404;2023-03-25T06:38:51;10.80;99.90
13049;DHT22;6591;51.446;5.404;2023-03-25T06:41:20;11.10;99.90
13049;DHT22;6591;51.446;5.404;2023-03-25T06:44:12;12.40;99.90
13049;DHT22;6591;51.446;5.404;2023-03-25T06:47:00;12.70;99.90
13049;DHT22;6591;51.446;5.404;2023-03-25T06:49:31;11.00;99.90
13049;DHT22;6591;51.446;5.404;2023-03-25T06:51:59;11.10;99.90
13049;DHT22;6591;51.446;5.404;2023-03-25T06:54:26;11.10;99.90
13049;DHT22;6591;51.446;5.404;2023-03-25T06:56:53;12.00;99.90
13049;DHT22;6591;51.446;5.404;2023-03-25T06:59:20;11.30;99.90
13049;DHT22;6591;51.446;5.404;2023-03-25T07:01:47;13.60;99.90
13049;DHT22;6591;51.446;5.404;2023-03-25T07:04:14;11.30;99.90
13049;DHT22;6591;51.446;5.404;2023-03-25T07:06:44;11.40;99.90
13049;DHT22;6591;51.446;5.404;2023-03-25T07:09:11;10.80;99.90
13049;DHT22;6591;51.446;5.404;2023-03-25T07:11:40;11.50;99.90
13049;DHT22;6591;51.446;5.404;2023-03-25T07:14:07;12.60;99.90
13049;DHT22;6591;51.446;5.404;2023-03-25T07:16:34;11.60;99.90
13049;DHT22;6591;51.446;5.404;2023-03-25T07:19:01;12.80;99.90
13049;DHT22;6591;51.446;5.404;2023-03-25T07:21:28;11.70;99.90
13049;DHT22;6591;51.446;5.404;2023-03-25T07:23:55;11.80;99.90
13049;DHT22;6591;51.446;5.404;2023-03-25T07:26:24;11.90;99.90
13049;DHT22;6591;51.446;5.404;2023-03-25T07:28:51;12.40;99.90
13049;DHT22;6591;51.446;5.404;2023-03-25T07:31:18;12.10;99.90
13049;DHT22;6591;51.446;5.404;2023-03-25T07:33:46;14.20;99.90
13049;DHT22;6591;51.446;5.404;2023-03-25T07:36:13;12.30;99.90
13049;DHT22;6591;51.446;5.404;2023-03-25T07:38:41;12.10;99.90
13049;DHT22;6591;51.446;5.404;2023-03-25T07:41:11;13.00;99.90
13049;DHT22;6591;51.446;5.404;2023-03-25T07:43:50;14.30;99.90
13049;DHT22;6591;51.446;5.404;2023-03-25T07:46:36;14.20;99.90
13049;DHT22;6591;51.446;5.404;2023-03-25T07:49:04;13.50;99.90
13049;DHT22;6591;51.446;5.404;2023-03-25T07:51:31;12.90;99.90
13049;DHT22;6591;51.446;5.404;2023-03-25T07:54:00;13.40;99.90
13049;DHT22;6591;51.446;5.404;2023-03-25T07:56:32;11.60;99.90
13049;DHT22;6591;51.446;5.404;2023-03-25T07:58:59;13.80;99.90
13049;DHT22;6591;51.446;5.404;2023-03-25T08:01:27;13.60;99.90
13049;DHT22;6591;51.446;5.404;2023-03-25T08:03:54;11.30;99.90
13049;DHT22;6591;51.446;5.404;2023-03-25T08:06:21;11.30;99.90
13049;DHT22;6591;51.446;5.404;2023-03-25T08:08:49;11.30;99.90
13049;DHT22;6591;51.446;5.404;2023-03-25T08:11:17;11.30;99.90
13049;DHT22;6591;51.446;5.404;2023-03-25T08:13:44;11.30;99.90
13049;DHT22;6591;51.446;5.404;2023-03-25T08:16:12;12.20;99.90
13049;DHT22;6591;51.446;5.404;2023-03-25T08:18:42;11.30;99.90
13049;DHT22;6591;51.446;5.404;2023-03-25T08:21:11;11.30;99.90
13049;DHT22;6591;51.446;5.404;2023-03-25T08:23:39;11.40;99.90
13049;DHT22;6591;51.446;5.404;2023-03-25T08:26:06;12.40;99.90
13049;DHT22;6591;51.446;5.404;2023-03-25T08:28:34;13.70;99.90
13049;DHT22;6591;51.446;5.404;2023-03-25T08:31:05;12.10;99.90
13049;DHT22;6591;51.446;5.404;2023-03-25T08:33:35;11.20;99.90
13049;DHT22;6591;51.446;5.404;2023-03-25T08:36:06;11.30;99.90
13049;DHT22;6591;51.446;5.404;2023-03-25T08:38:39;11.30;99.90
13049;DHT22;6591;51.446;5.404;2023-03-25T08:41:07;11.30;99.90
13049;DHT22;6591;51.446;5.404;2023-03-25T08:43:34;11.30;99.90
13049;DHT22;6591;51.446;5.404;2023-03-25T08:46:02;11.30;99.90
13049;DHT22;6591;51.446;5.404;2023-03-25T08:48:30;11.20;99.90
13049;DHT22;6591;51.446;5.404;2023-03-25T08:50:57;12.30;99.90
13049;DHT22;6591;51.446;5.404;2023-03-25T08:53:25;11.30;99.90
13049;DHT22;6591;51.446;5.404;2023-03-25T08:55:53;11.30;99.90
13049;DHT22;6591;51.446;5.404;2023-03-25T08:58:22;13.70;99.90
13049;DHT22;6591;51.446;5.404;2023-03-25T09:00:54;12.90;99.90
13049;DHT22;6591;51.446;5.404;2023-03-25T09:03:23;11.70;99.90
13049;DHT22;6591;51.446;5.404;2023-03-25T09:05:53;11.20;99.90
13049;DHT22;6591;51.446;5.404;2023-03-25T09:08:20;11.60;99.90
13049;DHT22;6591;51.446;5.404;2023-03-25T09:10:48;11.60;99.90
13049;DHT22;6591;51.446;5.404;2023-03-25T09:13:16;11.70;99.90
13049;DHT22;6591;51.446;5.404;2023-03-25T09:15:44;11.70;99.90
13049;DHT22;6591;51.446;5.404;2023-03-25T09:18:11;12.90;99.90
13049;DHT22;6591;51.446;5.404;2023-03-25T09:20:41;11.60;99.90
13049;DHT22;6591;51.446;5.404;2023-03-25T09:23:09;13.40;99.90
13049;DHT22;6591;51.446;5.404;2023-03-25T09:25:36;11.70;99.90
13049;DHT22;6591;51.446;5.404;2023-03-25T09:28:04;11.70;99.90
13049;DHT22;6591;51.446;5.404;2023-03-25T09:30:32;11.70;99.90
13049;DHT22;6591;51.446;5.404;2023-03-25T09:32:59;14.00;99.90
13049;DHT22;6591;51.446;5.404;2023-03-25T09:35:27;12.60;99.90
13049;DHT22;6591;51.446;5.404;2023-03-25T09:37:58;12.20;99.90
13049;DHT22;6591;51.446;5.404;2023-03-25T09:40:25;11.80;99.90
13049;DHT22;6591;51.446;5.404;2023-03-25T09:43:03;12.40;99.90
13049;DHT22;6591;51.446;5.404;2023-03-25T09:45:45;11.90;99.90
13049;DHT22;6591;51.446;5.404;2023-03-25T09:51:14;12.40;99.90
13049;DHT22;6591;51.446;5.404;2023-03-25T09:56:58;12.10;99.90
13049;DHT22;6591;51.446;5.404;2023-03-25T09:59:44;12.30;99.90
13049;DHT22;6591;51.446;5.404;2023-03-25T10:02:35;12.30;99.90
13049;DHT22;6591;51.446;5.404;2023-03-25T10:08:29;12.50;99.90
13049;DHT22;6591;51.446;5.404;2023-03-25T10:14:10;14.40;99.90
13049;DHT22;6591;51.446;5.404;2023-03-25T10:20:47;13.30;99.90
13049;DHT22;6591;51.446;5.404;2023-03-25T10:23:21;13.60;99.90
13049;DHT22;6591;51.446;5.404;2023-03-25T10:26:11;13.90;99.90
13049;DHT22;6591;51.446;5.404;2023-03-25T10:28:52;14.10;99.90
13049;DHT22;6591;51.446;5.404;2023-03-25T10:31:27;14.90;99.90
13049;DHT22;6591;51.446;5.404;2023-03-25T10:34:04;14.40;99.90
13049;DHT22;6591;51.446;5.404;2023-03-25T10:36:44;14.60;99.90
13049;DHT22;6591;51.446;5.404;2023-03-25T10:39:20;14.80;99.90
13049;DHT22;6591;51.446;5.404;2023-03-25T10:41:56;14.70;99.90
13049;DHT22;6591;51.446;5.404;2023-03-25T10:44:27;14.80;99.90
13049;DHT22;6591;51.446;5.404;2023-03-25T10:47:04;14.80;99.90
13049;DHT22;6591;51.446;5.404;2023-03-25T10:49:39;14.90;99.90
13049;DHT22;6591;51.446;5.404;2023-03-25T10:52:08;15.70;99.90
13049;DHT22;6591;51.446;5.404;2023-03-25T10:54:40;15.40;99.90
13049;DHT22;6591;51.446;5.404;2023-03-25T10:57:19;16.00;99.90
13049;DHT22;6591;51.446;5.404;2023-03-25T11:00:08;15.10;99.90
13049;DHT22;6591;51.446;5.404;2023-03-25T11:02:49;15.20;99.90
13049;DHT22;6591;51.446;5.404;2023-03-25T11:05:21;16.60;99.90
13049;DHT22;6591;51.446;5.404;2023-03-25T11:07:57;16.10;99.90
13049;DHT22;6591;51.446;5.404;2023-03-25T11:10:46;15.60;99.90
13049;DHT22;6591;51.446;5.404;2023-03-25T11:13:16;15.90;99.90
13049;DHT22;6591;51.446;5.404;2023-03-25T11:15:47;16.10;99.90
13049;DHT22;6591;51.446;5.404;2023-03-25T11:18:27;16.30;99.90
13049;DHT22;6591;51.446;5.404;2023-03-25T11:21:03;16.50;99.90
13049;DHT22;6591;51.446;5.404;2023-03-25T11:23:43;16.60;99.90
13049;DHT22;6591;51.446;5.404;2023-03-25T11:29:00;16.80;99.90
13049;DHT22;6591;51.446;5.404;2023-03-25T11:31:36;18.70;99.90
13049;DHT22;6591;51.446;5.404;2023-03-25T11:36:53;16.40;99.90
13049;DHT22;6591;51.446;5.404;2023-03-25T11:39:29;16.40;99.90
13049;DHT22;6591;51.446;5.404;2023-03-25T11:42:39;16.20;99.90
13049;DHT22;6591;51.446;5.404;2023-03-25T11:45:36;17.40;99.90
13049;DHT22;6591;51.446;5.404;2023-03-25T11:48:15;15.90;99.90
13049;DHT22;6591;51.446;5.404;2023-03-25T11:51:00;15.70;99.90
13049;DHT22;6591;51.446;5.404;2023-03-25T11:53:30;15.50;99.90
13049;DHT22;6591;51.446;5.404;2023-03-25T11:56:05;16.20;99.90
13049;DHT22;6591;51.446;5.404;2023-03-25T11:58:38;15.10;99.90
13049;DHT22;6591;51.446;5.404;2023-03-25T12:01:20;15.00;99.90
13049;DHT22;6591;51.446;5.404;2023-03-25T12:04:20;14.90;99.90
13049;DHT22;6591;51.446;5.404;2023-03-25T12:07:06;15.00;99.90
13049;DHT22;6591;51.446;5.404;2023-03-25T12:09:35;15.10;99.90
13049;DHT22;6591;51.446;5.404;2023-03-25T12:12:22;15.30;99.90
13049;DHT22;6591;51.446;5.404;2023-03-25T12:17:59;15.60;99.90
13049;DHT22;6591;51.446;5.404;2023-03-25T12:23:48;15.70;99.90
13049;DHT22;6591;51.446;5.404;2023-03-25T12:32:18;15.20;99.90
13049;DHT22;6591;51.446;5.404;2023-03-25T12:38:21;14.60;99.90
13049;DHT22;6591;51.446;5.404;2023-03-25T12:41:14;14.30;99.90
13049;DHT22;6591;51.446;5.404;2023-03-25T12:46:45;13.80;99.90
13049;DHT22;6591;51.446;5.404;2023-03-25T12:52:06;13.90;99.90
13049;DHT22;6591;51.446;5.404;2023-03-25T12:55:46;14.10;99.90
13049;DHT22;6591;51.446;5.404;2023-03-25T13:02:19;14.50;99.90
13049;DHT22;6591;51.446;5.404;2023-03-25T13:07:32;14.60;99.90
13049;DHT22;6591;51.446;5.404;2023-03-25T13:12:52;14.20;99.90
13049;DHT22;6591;51.446;5.404;2023-03-25T13:15:27;14.00;99.90
13049;DHT22;6591;51.446;5.404;2023-03-25T13:21:25;13.70;99.90
13049;DHT22;6591;51.446;5.404;2023-03-25T13:24:04;13.40;99.90
13049;DHT22;6591;51.446;5.404;2023-03-25T13:26:37;13.40;99.90
13049;DHT22;6591;51.446;5.404;2023-03-25T13:31:42;13.40;99.90
13049;DHT22;6591;51.446;5.404;2023-03-25T13:34:29;13.40;99.90
13049;DHT22;6591;51.446;5.404;2023-03-25T13:46:05;13.70;99.90
13049;DHT22;6591;51.446;5.404;2023-03-25T13:48:54;13.70;99.90
13049;DHT22;6591;51.446;5.404;2023-03-25T13:51:27;13.60;99.90
13049;DHT22;6591;51.446;5.404;2023-03-25T14:12:20;12.80;99.90
13049;DHT22;6591;51.446;5.404;2023-03-25T14:14:58;12.90;99.90
13049;DHT22;6591;51.446;5.404;2023-03-25T14:17:30;14.40;99.90
13049;DHT22;6591;51.446;5.404;2023-03-25T14:20:03;13.10;99.90
13049;DHT22;6591;51.446;5.404;2023-03-25T14:22:38;13.30;99.90
13049;DHT22;6591;51.446;5.404;2023-03-25T14:25:25;13.80;99.90
13049;DHT22;6591;51.446;5.404;2023-03-25T14:27:55;13.90;99.90
13049;DHT22;6591;51.446;5.404;2023-03-25T14:30:24;14.10;99.90
13049;DHT22;6591;51.446;5.404;2023-03-25T14:32:54;14.10;99.90
13049;DHT22;6591;51.446;5.404;2023-03-25T14:43:50;14.50;99.90
13049;DHT22;6591;51.446;5.404;2023-03-25T14:46:35;14.40;99.90
13049;DHT22;6591;51.446;5.404;2023-03-25T14:59:38;14.60;99.90
13049;DHT22;6591;51.446;5.404;2023-03-25T15:02:30;14.80;99.90
13049;DHT22;6591;51.446;5.404;2023-03-25T15:05:02;16.10;99.90
13049;DHT22;6591;51.446;5.404;2023-03-25T15:07:45;15.20;99.90
13049;DHT22;6591;51.446;5.404;2023-03-25T15:10:26;15.40;99.90
13049;DHT22;6591;51.446;5.404;2023-03-25T15:13:46;15.70;99.90
13049;DHT22;6591;51.446;5.404;2023-03-25T15:16:12;15.90;99.90
13049;DHT22;6591;51.446;5.404;2023-03-25T15:19:17;16.10;99.90
13049;DHT22;6591;51.446;5.404;2023-03-25T15:24:35;16.30;99.90
13049;DHT22;6591;51.446;5.404;2023-03-25T15:39:15;17.00;99.90
13049;DHT22;6591;51.446;5.404;2023-03-25T15:51:10;16.40;99.70
13049;DHT22;6591;51.446;5.404;2023-03-25T16:00:11;16.20;98.20
13049;DHT22;6591;51.446;5.404;2023-03-25T16:02:50;16.10;98.40
13049;DHT22;6591;51.446;5.404;2023-03-25T16:05:25;16.10;98.50
13049;DHT22;6591;51.446;5.404;2023-03-25T16:07:55;16.10;99.10
13049;DHT22;6591;51.446;5.404;2023-03-25T16:10:31;16.80;99.10
13049;DHT22;6591;51.446;5.404;2023-03-25T16:13:10;16.20;99.00
13049;DHT22;6591;51.446;5.404;2023-03-25T16:15:40;16.30;98.70
13049;DHT22;6591;51.446;5.404;2023-03-25T16:18:09;16.30;97.70
13049;DHT22;6591;51.446;5.404;2023-03-25T16:20:44;16.20;97.50
13049;DHT22;6591;51.446;5.404;2023-03-25T16:23:20;16.20;97.70
13049;DHT22;6591;51.446;5.404;2023-03-25T16:25:50;16.10;98.00
13049;DHT22;6591;51.446;5.404;2023-03-25T16:28:27;16.20;98.00
13049;DHT22;6591;51.446;5.404;2023-03-25T16:30:57;16.00;98.20
13049;DHT22;6591;51.446;5.404;2023-03-25T16:33:30;16.40;98.70
13049;DHT22;6591;51.446;5.404;2023-03-25T16:36:07;15.80;98.30
13049;DHT22;6591;51.446;5.404;2023-03-25T16:38:42;15.80;98.50
13049;DHT22;6591;51.446;5.404;2023-03-25T16:41:14;15.70;99.20
13049;DHT22;6591;51.446;5.404;2023-03-25T16:43:42;15.70;98.70
13049;DHT22;6591;51.446;5.404;2023-03-25T16:46:11;15.60;98.90
13049;DHT22;6591;51.446;5.404;2023-03-25T16:48:48;15.30;99.00
13049;DHT22;6591;51.446;5.404;2023-03-25T16:54:07;15.50;98.80
13049;DHT22;6591;51.446;5.404;2023-03-25T16:56:37;15.40;99.00
13049;DHT22;6591;51.446;5.404;2023-03-25T16:59:27;15.90;99.20
13049;DHT22;6591;51.446;5.404;2023-03-25T17:02:00;15.30;99.00
13049;DHT22;6591;51.446;5.404;2023-03-25T17:07:07;15.20;99.10
13049;DHT22;6591;51.446;5.404;2023-03-25T17:09:40;15.20;99.20
13049;DHT22;6591;51.446;5.404;2023-03-25T17:12:15;15.30;99.20
13049;DHT22;6591;51.446;5.404;2023-03-25T17:14:47;15.20;99.30
13049;DHT22;6591;51.446;5.404;2023-03-25T17:17:42;15.80;99.50
13049;DHT22;6591;51.446;5.404;2023-03-25T17:20:18;15.10;99.30
13049;DHT22;6591;51.446;5.404;2023-03-25T17:23:00;15.10;99.30
13049;DHT22;6591;51.446;5.404;2023-03-25T17:25:55;15.00;99.30
13049;DHT22;6591;51.446;5.404;2023-03-25T17:28:41;15.00;99.30
13049;DHT22;6591;51.446;5.404;2023-03-25T17:31:34;14.90;99.50
13049;DHT22;6591;51.446;5.404;2023-03-25T17:34:09;15.10;99.70
13049;DHT22;6591;51.446;5.404;2023-03-25T17:36:42;14.70;99.70
13049;DHT22;6591;51.446;5.404;2023-03-25T17:39:26;15.70;99.90
13049;DHT22;6591;51.446;5.404;2023-03-25T17:42:04;14.70;99.90
13049;DHT22;6591;51.446;5.404;2023-03-25T17:44:39;14.60;99.90
13049;DHT22;6591;51.446;5.404;2023-03-25T17:47:14;14.60;99.90
13049;DHT22;6591;51.446;5.404;2023-03-25T17:49:43;14.80;99.90
13049;DHT22;6591;51.446;5.404;2023-03-25T17:52:10;15.10;99.90
13049;DHT22;6591;51.446;5.404;2023-03-25T17:54:37;14.40;99.90
13049;DHT22;6591;51.446;5.404;2023-03-25T17:57:13;14.40;99.90
13049;DHT22;6591;51.446;5.404;2023-03-25T17:59:45;15.90;99.90
13049;DHT22;6591;51.446;5.404;2023-03-25T18:02:14;15.30;99.90
13049;DHT22;6591;51.446;5.404;2023-03-25T18:04:42;14.30;99.90
13049;DHT22;6591;51.446;5.404;2023-03-25T18:07:09;14.20;99.90
13049;DHT22;6591;51.446;5.404;2023-03-25T18:09:37;14.20;99.90
13049;DHT22;6591;51.446;5.404;2023-03-25T18:12:05;15.80;99.90
13049;DHT22;6591;51.446;5.404;2023-03-25T18:14:32;14.10;99.90
13049;DHT22;6591;51.446;5.404;2023-03-25T18:17:00;14.10;99.90
13049;DHT22;6591;51.446;5.404;2023-03-25T18:19:29;14.10;99.90
13049;DHT22;6591;51.446;5.404;2023-03-25T18:21:57;14.00;99.90
13049;DHT22;6591;51.446;5.404;2023-03-25T18:24:44;15.80;99.90
13049;DHT22;6591;51.446;5.404;2023-03-25T18:27:11;13.90;99.90
13049;DHT22;6591;51.446;5.404;2023-03-25T18:29:40;13.80;99.90
13049;DHT22;6591;51.446;5.404;2023-03-25T18:32:07;14.00;99.90
13049;DHT22;6591;51.446;5.404;2023-03-25T18:34:34;13.70;99.90
13049;DHT22;6591;51.446;5.404;2023-03-25T18:37:01;13.70;99.90
13049;DHT22;6591;51.446;5.404;2023-03-25T18:39:29;13.70;99.90
13049;DHT22;6591;51.446;5.404;2023-03-25T18:41:57;13.70;99.90
13049;DHT22;6591;51.446;5.404;2023-03-25T18:44:25;13.70;99.90
13049;DHT22;6591;51.446;5.404;2023-03-25T18:46:53;13.70;99.90
13049;DHT22;6591;51.446;5.404;2023-03-25T18:49:21;15.20;99.90
13049;DHT22;6591;51.446;5.404;2023-03-25T18:51:48;14.30;99.90
13049;DHT22;6591;51.446;5.404;2023-03-25T18:54:16;13.60;99.90
13049;DHT22;6591;51.446;5.404;2023-03-25T18:56:44;13.90;99.90
13049;DHT22;6591;51.446;5.404;2023-03-25T18:59:15;13.60;99.90
13049;DHT22;6591;51.446;5.404;2023-03-25T19:01:47;13.50;99.90
13049;DHT22;6591;51.446;5.404;2023-03-25T19:04:14;13.40;99.90
13049;DHT22;6591;51.446;5.404;2023-03-25T19:06:41;14.70;99.90
13049;DHT22;6591;51.446;5.404;2023-03-25T19:09:15;13.40;99.90
13049;DHT22;6591;51.446;5.404;2023-03-25T19:11:45;13.20;99.90
13049;DHT22;6591;51.446;5.404;2023-03-25T19:14:12;13.10;99.90
13049;DHT22;6591;51.446;5.404;2023-03-25T19:16:40;13.30;99.90
13049;DHT22;6591;51.446;5.404;2023-03-25T19:19:13;12.90;99.90
13049;DHT22;6591;51.446;5.404;2023-03-25T19:21:40;12.90;99.90
13049;DHT22;6591;51.446;5.404;2023-03-25T19:24:07;12.80;99.90